Terminal Aerodrome Forecast
Issued by NWS

Home | Current Version | Previous Version | Graphics & Text | Print | Product List | Glossary On
Versions: 1 2 3 4 5 6 7 8 9 10 11 12 13 14 15 16 17 18
666
FTUS43 KBIS 161730
TAFMOT
TAF
KMOT 161730Z 1618/1718 26011KT P6SM SCT250
     FM170200 24009KT P6SM SCT120 BKN180
     FM170800 23009KT P6SM SCT110 BKN130 WS020/27035KT
     FM171600 24011KT P6SM FEW200 WS011/27020KT=

USA.gov is the U.S. government's official web portal to all federal, state and local government web resources and services.